sensor_id;sensor_type;location;lat;lon;timestamp;temperature;humidity
17807;DHT22;9027;48.938;9.182;2023-03-04T00:00:53;2.80;99.90
17807;DHT22;9027;48.938;9.182;2023-03-04T00:02:25;2.80;99.90
17807;DHT22;9027;48.938;9.182;2023-03-04T00:03:56;2.80;99.90
17807;DHT22;9027;48.938;9.182;2023-03-04T00:05:27;2.70;99.90
17807;DHT22;9027;48.938;9.182;2023-03-04T00:07:00;2.70;99.90
17807;DHT22;9027;48.938;9.182;2023-03-04T00:08:32;2.60;99.90
17807;DHT22;9027;48.938;9.182;2023-03-04T00:10:06;2.50;99.90
17807;DHT22;9027;48.938;9.182;2023-03-04T00:11:38;2.50;99.90
17807;DHT22;9027;48.938;9.182;2023-03-04T00:13:10;2.40;99.90
17807;DHT22;9027;48.938;9.182;2023-03-04T00:14:41;2.30;99.90
17807;DHT22;9027;48.938;9.182;2023-03-04T00:16:13;2.30;99.90
17807;DHT22;9027;48.938;9.182;2023-03-04T00:17:45;2.30;99.90
17807;DHT22;9027;48.938;9.182;2023-03-04T00:19:17;2.40;99.90
17807;DHT22;9027;48.938;9.182;2023-03-04T00:20:49;2.50;99.90
17807;DHT22;9027;48.938;9.182;2023-03-04T00:22:21;2.60;99.90
17807;DHT22;9027;48.938;9.182;2023-03-04T00:23:51;2.60;99.90
17807;DHT22;9027;48.938;9.182;2023-03-04T00:25:25;2.70;99.90
17807;DHT22;9027;48.938;9.182;2023-03-04T00:26:57;2.80;99.90
17807;DHT22;9027;48.938;9.182;2023-03-04T00:28:28;2.90;99.90
17807;DHT22;9027;48.938;9.182;2023-03-04T00:30:00;2.90;99.90
17807;DHT22;9027;48.938;9.182;2023-03-04T00:31:31;2.90;99.90
17807;DHT22;9027;48.938;9.182;2023-03-04T00:33:03;2.80;99.90
17807;DHT22;9027;48.938;9.182;2023-03-04T00:34:35;2.80;99.90
17807;DHT22;9027;48.938;9.182;2023-03-04T00:36:07;2.90;99.90
17807;DHT22;9027;48.938;9.182;2023-03-04T00:37:38;2.90;99.90
17807;DHT22;9027;48.938;9.182;2023-03-04T00:39:10;3.00;99.90
17807;DHT22;9027;48.938;9.182;2023-03-04T00:40:43;3.00;99.90
17807;DHT22;9027;48.938;9.182;2023-03-04T00:42:14;3.00;99.90
17807;DHT22;9027;48.938;9.182;2023-03-04T00:43:46;3.10;99.90
17807;DHT22;9027;48.938;9.182;2023-03-04T00:45:18;3.10;99.90
17807;DHT22;9027;48.938;9.182;2023-03-04T00:46:50;3.10;99.90
17807;DHT22;9027;48.938;9.182;2023-03-04T00:48:22;3.00;99.90
17807;DHT22;9027;48.938;9.182;2023-03-04T00:49:54;3.10;99.90
17807;DHT22;9027;48.938;9.182;2023-03-04T00:51:25;3.00;99.90
17807;DHT22;9027;48.938;9.182;2023-03-04T00:52:57;3.00;99.90
17807;DHT22;9027;48.938;9.182;2023-03-04T00:54:28;3.00;99.90
17807;DHT22;9027;48.938;9.182;2023-03-04T00:56:01;2.80;99.90
17807;DHT22;9027;48.938;9.182;2023-03-04T00:57:35;2.80;99.90
17807;DHT22;9027;48.938;9.182;2023-03-04T00:59:06;2.80;99.90
17807;DHT22;9027;48.938;9.182;2023-03-04T01:00:38;2.80;99.90
17807;DHT22;9027;48.938;9.182;2023-03-04T01:02:10;2.80;99.90
17807;DHT22;9027;48.938;9.182;2023-03-04T01:03:42;2.90;99.90
17807;DHT22;9027;48.938;9.182;2023-03-04T01:05:14;2.90;99.90
17807;DHT22;9027;48.938;9.182;2023-03-04T01:06:46;2.70;99.90
17807;DHT22;9027;48.938;9.182;2023-03-04T01:08:18;2.50;99.90
17807;DHT22;9027;48.938;9.182;2023-03-04T01:09:50;2.50;99.90
17807;DHT22;9027;48.938;9.182;2023-03-04T01:11:24;2.50;99.90
17807;DHT22;9027;48.938;9.182;2023-03-04T01:12:55;2.50;99.90
17807;DHT22;9027;48.938;9.182;2023-03-04T01:14:27;2.50;99.90
17807;DHT22;9027;48.938;9.182;2023-03-04T01:15:58;2.60;99.90
17807;DHT22;9027;48.938;9.182;2023-03-04T01:17:30;2.60;99.90
17807;DHT22;9027;48.938;9.182;2023-03-04T01:19:01;2.70;99.90
17807;DHT22;9027;48.938;9.182;2023-03-04T01:20:34;2.70;99.90
17807;DHT22;9027;48.938;9.182;2023-03-04T01:22:06;2.70;99.90
17807;DHT22;9027;48.938;9.182;2023-03-04T01:23:40;2.70;99.90
17807;DHT22;9027;48.938;9.182;2023-03-04T01:25:12;2.80;99.90
17807;DHT22;9027;48.938;9.182;2023-03-04T01:26:45;2.80;99.90
17807;DHT22;9027;48.938;9.182;2023-03-04T01:28:18;2.80;99.90
17807;DHT22;9027;48.938;9.182;2023-03-04T01:29:52;2.70;99.90
17807;DHT22;9027;48.938;9.182;2023-03-04T01:31:22;2.70;99.90
17807;DHT22;9027;48.938;9.182;2023-03-04T01:32:55;2.70;99.90
17807;DHT22;9027;48.938;9.182;2023-03-04T01:34:26;2.70;99.90
17807;DHT22;9027;48.938;9.182;2023-03-04T01:35:58;2.60;99.90
17807;DHT22;9027;48.938;9.182;2023-03-04T01:37:30;2.60;99.90
17807;DHT22;9027;48.938;9.182;2023-03-04T01:39:03;2.50;99.90
17807;DHT22;9027;48.938;9.182;2023-03-04T01:40:36;2.50;99.90
17807;DHT22;9027;48.938;9.182;2023-03-04T01:42:17;2.50;99.90
17807;DHT22;9027;48.938;9.182;2023-03-04T01:43:49;2.50;99.90
17807;DHT22;9027;48.938;9.182;2023-03-04T01:45:21;2.50;99.90
17807;DHT22;9027;48.938;9.182;2023-03-04T01:46:54;2.50;99.90
17807;DHT22;9027;48.938;9.182;2023-03-04T01:48:29;2.50;99.90
17807;DHT22;9027;48.938;9.182;2023-03-04T01:50:10;2.50;99.90
17807;DHT22;9027;48.938;9.182;2023-03-04T01:51:47;2.40;99.90
17807;DHT22;9027;48.938;9.182;2023-03-04T01:53:21;2.30;99.90
17807;DHT22;9027;48.938;9.182;2023-03-04T01:54:53;2.30;99.90
17807;DHT22;9027;48.938;9.182;2023-03-04T01:56:28;2.30;99.90
17807;DHT22;9027;48.938;9.182;2023-03-04T01:58:04;2.20;99.90
17807;DHT22;9027;48.938;9.182;2023-03-04T01:59:40;2.20;99.90
17807;DHT22;9027;48.938;9.182;2023-03-04T02:01:12;2.20;99.90
17807;DHT22;9027;48.938;9.182;2023-03-04T02:02:44;2.30;99.90
17807;DHT22;9027;48.938;9.182;2023-03-04T02:04:17;2.30;99.90
17807;DHT22;9027;48.938;9.182;2023-03-04T02:05:51;2.30;99.90
17807;DHT22;9027;48.938;9.182;2023-03-04T02:07:23;2.30;99.90
17807;DHT22;9027;48.938;9.182;2023-03-04T02:08:54;2.30;99.90
17807;DHT22;9027;48.938;9.182;2023-03-04T02:10:26;2.40;99.90
17807;DHT22;9027;48.938;9.182;2023-03-04T02:11:58;2.40;99.90
17807;DHT22;9027;48.938;9.182;2023-03-04T02:13:31;2.40;99.90
17807;DHT22;9027;48.938;9.182;2023-03-04T02:15:05;2.30;99.90
17807;DHT22;9027;48.938;9.182;2023-03-04T02:16:37;2.30;99.90
17807;DHT22;9027;48.938;9.182;2023-03-04T02:18:14;2.30;99.90
17807;DHT22;9027;48.938;9.182;2023-03-04T02:19:49;2.20;99.90
17807;DHT22;9027;48.938;9.182;2023-03-04T02:21:23;2.10;99.90
17807;DHT22;9027;48.938;9.182;2023-03-04T02:23:00;2.20;99.90
17807;DHT22;9027;48.938;9.182;2023-03-04T02:24:37;2.10;99.90
17807;DHT22;9027;48.938;9.182;2023-03-04T02:26:14;2.00;99.90
17807;DHT22;9027;48.938;9.182;2023-03-04T02:27:47;2.10;99.90
17807;DHT22;9027;48.938;9.182;2023-03-04T02:29:19;2.20;99.90
17807;DHT22;9027;48.938;9.182;2023-03-04T02:30:51;2.20;99.90
17807;DHT22;9027;48.938;9.182;2023-03-04T02:32:22;2.20;99.90
17807;DHT22;9027;48.938;9.182;2023-03-04T02:33:56;2.20;99.90
17807;DHT22;9027;48.938;9.182;2023-03-04T02:35:27;2.30;99.90
17807;DHT22;9027;48.938;9.182;2023-03-04T02:37:01;2.30;99.90
17807;DHT22;9027;48.938;9.182;2023-03-04T02:38:35;2.20;99.90
17807;DHT22;9027;48.938;9.182;2023-03-04T02:40:11;2.10;99.90
17807;DHT22;9027;48.938;9.182;2023-03-04T02:41:46;2.10;99.90
17807;DHT22;9027;48.938;9.182;2023-03-04T02:43:19;2.10;99.90
17807;DHT22;9027;48.938;9.182;2023-03-04T02:44:59;1.90;99.90
17807;DHT22;9027;48.938;9.182;2023-03-04T02:46:31;1.90;99.90
17807;DHT22;9027;48.938;9.182;2023-03-04T02:48:04;2.00;99.90
17807;DHT22;9027;48.938;9.182;2023-03-04T02:49:36;2.10;99.90
17807;DHT22;9027;48.938;9.182;2023-03-04T02:51:08;2.10;99.90
17807;DHT22;9027;48.938;9.182;2023-03-04T02:52:40;2.10;99.90
17807;DHT22;9027;48.938;9.182;2023-03-04T02:54:14;2.20;99.90
17807;DHT22;9027;48.938;9.182;2023-03-04T02:55:47;2.20;99.90
17807;DHT22;9027;48.938;9.182;2023-03-04T02:57:20;2.10;99.90
17807;DHT22;9027;48.938;9.182;2023-03-04T02:58:56;2.10;99.90
17807;DHT22;9027;48.938;9.182;2023-03-04T03:00:28;2.20;99.90
17807;DHT22;9027;48.938;9.182;2023-03-04T03:02:00;2.20;99.90
17807;DHT22;9027;48.938;9.182;2023-03-04T03:03:31;2.10;99.90
17807;DHT22;9027;48.938;9.182;2023-03-04T03:05:04;2.20;99.90
17807;DHT22;9027;48.938;9.182;2023-03-04T03:06:35;2.20;99.90
17807;DHT22;9027;48.938;9.182;2023-03-04T03:08:07;2.10;99.90
17807;DHT22;9027;48.938;9.182;2023-03-04T03:09:39;2.10;99.90
17807;DHT22;9027;48.938;9.182;2023-03-04T03:11:11;2.10;99.90
17807;DHT22;9027;48.938;9.182;2023-03-04T03:12:45;2.00;99.90
17807;DHT22;9027;48.938;9.182;2023-03-04T03:14:15;2.00;99.90
17807;DHT22;9027;48.938;9.182;2023-03-04T03:15:47;2.00;99.90
17807;DHT22;9027;48.938;9.182;2023-03-04T03:17:19;2.10;99.90
17807;DHT22;9027;48.938;9.182;2023-03-04T03:18:51;2.10;99.90
17807;DHT22;9027;48.938;9.182;2023-03-04T03:20:24;2.10;99.90
17807;DHT22;9027;48.938;9.182;2023-03-04T03:21:56;2.10;99.90
17807;DHT22;9027;48.938;9.182;2023-03-04T03:23:27;2.00;99.90
17807;DHT22;9027;48.938;9.182;2023-03-04T03:24:58;2.10;99.90
17807;DHT22;9027;48.938;9.182;2023-03-04T03:26:29;2.10;99.90
17807;DHT22;9027;48.938;9.182;2023-03-04T03:28:03;2.10;99.90
17807;DHT22;9027;48.938;9.182;2023-03-04T03:29:35;2.00;99.90
17807;DHT22;9027;48.938;9.182;2023-03-04T03:31:06;2.00;99.90
17807;DHT22;9027;48.938;9.182;2023-03-04T03:32:38;2.00;99.90
17807;DHT22;9027;48.938;9.182;2023-03-04T03:34:11;2.00;99.90
17807;DHT22;9027;48.938;9.182;2023-03-04T03:35:43;2.00;99.90
17807;DHT22;9027;48.938;9.182;2023-03-04T03:37:16;2.00;99.90
17807;DHT22;9027;48.938;9.182;2023-03-04T03:38:47;2.00;99.90
17807;DHT22;9027;48.938;9.182;2023-03-04T03:40:19;1.90;99.90
17807;DHT22;9027;48.938;9.182;2023-03-04T03:41:51;1.90;99.90
17807;DHT22;9027;48.938;9.182;2023-03-04T03:43:23;1.90;99.90
17807;DHT22;9027;48.938;9.182;2023-03-04T03:44:55;1.90;99.90
17807;DHT22;9027;48.938;9.182;2023-03-04T03:46:26;1.90;99.90
17807;DHT22;9027;48.938;9.182;2023-03-04T03:47:59;1.90;99.90
17807;DHT22;9027;48.938;9.182;2023-03-04T03:49:31;1.90;99.90
17807;DHT22;9027;48.938;9.182;2023-03-04T03:51:03;1.90;99.90
17807;DHT22;9027;48.938;9.182;2023-03-04T03:52:35;1.90;99.90
17807;DHT22;9027;48.938;9.182;2023-03-04T03:54:06;1.80;99.90
17807;DHT22;9027;48.938;9.182;2023-03-04T03:55:38;1.80;99.90
17807;DHT22;9027;48.938;9.182;2023-03-04T03:57:10;1.80;99.90
17807;DHT22;9027;48.938;9.182;2023-03-04T03:58:43;1.80;99.90
17807;DHT22;9027;48.938;9.182;2023-03-04T04:01:47;1.70;99.90
17807;DHT22;9027;48.938;9.182;2023-03-04T04:03:18;1.60;99.90
17807;DHT22;9027;48.938;9.182;2023-03-04T04:04:50;1.50;99.90
17807;DHT22;9027;48.938;9.182;2023-03-04T04:06:21;1.50;99.90
17807;DHT22;9027;48.938;9.182;2023-03-04T04:07:53;1.30;99.90
17807;DHT22;9027;48.938;9.182;2023-03-04T04:09:25;1.20;99.90
17807;DHT22;9027;48.938;9.182;2023-03-04T04:10:57;1.20;99.90
17807;DHT22;9027;48.938;9.182;2023-03-04T04:12:27;1.30;99.90
17807;DHT22;9027;48.938;9.182;2023-03-04T04:14:01;1.40;99.90
17807;DHT22;9027;48.938;9.182;2023-03-04T04:15:32;1.50;99.90
17807;DHT22;9027;48.938;9.182;2023-03-04T04:17:04;1.50;99.90
17807;DHT22;9027;48.938;9.182;2023-03-04T04:18:37;1.50;99.90
17807;DHT22;9027;48.938;9.182;2023-03-04T04:20:10;1.50;99.90
17807;DHT22;9027;48.938;9.182;2023-03-04T04:21:41;1.30;99.90
17807;DHT22;9027;48.938;9.182;2023-03-04T04:23:12;1.30;99.90
17807;DHT22;9027;48.938;9.182;2023-03-04T04:24:44;1.20;99.90
17807;DHT22;9027;48.938;9.182;2023-03-04T04:26:16;1.20;99.90
17807;DHT22;9027;48.938;9.182;2023-03-04T04:27:47;1.20;99.90
17807;DHT22;9027;48.938;9.182;2023-03-04T04:29:20;1.30;99.90
17807;DHT22;9027;48.938;9.182;2023-03-04T04:30:52;1.40;99.90
17807;DHT22;9027;48.938;9.182;2023-03-04T04:32:24;1.50;99.90
17807;DHT22;9027;48.938;9.182;2023-03-04T04:33:55;1.50;99.90
17807;DHT22;9027;48.938;9.182;2023-03-04T04:35:27;1.40;99.90
17807;DHT22;9027;48.938;9.182;2023-03-04T04:36:59;1.30;99.90
17807;DHT22;9027;48.938;9.182;2023-03-04T04:38:31;1.30;99.90
17807;DHT22;9027;48.938;9.182;2023-03-04T04:40:03;1.30;99.90
17807;DHT22;9027;48.938;9.182;2023-03-04T04:41:37;1.40;99.90
17807;DHT22;9027;48.938;9.182;2023-03-04T04:43:08;1.40;99.90
17807;DHT22;9027;48.938;9.182;2023-03-04T04:44:41;1.40;99.90
17807;DHT22;9027;48.938;9.182;2023-03-04T04:46:13;1.40;99.90
17807;DHT22;9027;48.938;9.182;2023-03-04T04:47:45;1.40;99.90
17807;DHT22;9027;48.938;9.182;2023-03-04T04:49:17;1.40;99.90
17807;DHT22;9027;48.938;9.182;2023-03-04T04:50:53;1.40;99.90
17807;DHT22;9027;48.938;9.182;2023-03-04T04:52:25;1.40;99.90
17807;DHT22;9027;48.938;9.182;2023-03-04T04:53:58;1.30;99.90
17807;DHT22;9027;48.938;9.182;2023-03-04T04:55:29;1.20;99.90
17807;DHT22;9027;48.938;9.182;2023-03-04T04:57:01;1.20;99.90
17807;DHT22;9027;48.938;9.182;2023-03-04T04:58:33;1.10;99.90
17807;DHT22;9027;48.938;9.182;2023-03-04T05:00:07;1.20;99.90
17807;DHT22;9027;48.938;9.182;2023-03-04T05:01:39;1.20;99.90
17807;DHT22;9027;48.938;9.182;2023-03-04T05:03:11;1.10;99.90
17807;DHT22;9027;48.938;9.182;2023-03-04T05:04:43;1.20;99.90
17807;DHT22;9027;48.938;9.182;2023-03-04T05:06:15;1.20;99.90
17807;DHT22;9027;48.938;9.182;2023-03-04T05:07:47;1.20;99.90
17807;DHT22;9027;48.938;9.182;2023-03-04T05:09:19;1.20;99.90
17807;DHT22;9027;48.938;9.182;2023-03-04T05:10:52;1.20;99.90
17807;DHT22;9027;48.938;9.182;2023-03-04T05:12:24;1.20;99.90
17807;DHT22;9027;48.938;9.182;2023-03-04T05:13:56;1.20;99.90
17807;DHT22;9027;48.938;9.182;2023-03-04T05:15:29;1.20;99.90
17807;DHT22;9027;48.938;9.182;2023-03-04T05:17:01;1.20;99.90
17807;DHT22;9027;48.938;9.182;2023-03-04T05:18:33;1.20;99.90
17807;DHT22;9027;48.938;9.182;2023-03-04T05:20:05;1.10;99.90
17807;DHT22;9027;48.938;9.182;2023-03-04T05:21:37;1.10;99.90
17807;DHT22;9027;48.938;9.182;2023-03-04T05:23:09;1.10;99.90
17807;DHT22;9027;48.938;9.182;2023-03-04T05:24:40;1.10;99.90
17807;DHT22;9027;48.938;9.182;2023-03-04T05:26:14;1.20;99.90
17807;DHT22;9027;48.938;9.182;2023-03-04T05:27:46;1.10;99.90
17807;DHT22;9027;48.938;9.182;2023-03-04T05:29:18;1.00;99.90
17807;DHT22;9027;48.938;9.182;2023-03-04T05:30:51;1.00;99.90
17807;DHT22;9027;48.938;9.182;2023-03-04T05:32:22;0.90;99.90
17807;DHT22;9027;48.938;9.182;2023-03-04T05:33:54;0.90;99.90
17807;DHT22;9027;48.938;9.182;2023-03-04T05:35:26;0.90;99.90
17807;DHT22;9027;48.938;9.182;2023-03-04T05:36:58;1.00;99.90
17807;DHT22;9027;48.938;9.182;2023-03-04T05:38:29;1.00;99.90
17807;DHT22;9027;48.938;9.182;2023-03-04T05:40:00;1.10;99.90
17807;DHT22;9027;48.938;9.182;2023-03-04T05:41:32;1.10;99.90
17807;DHT22;9027;48.938;9.182;2023-03-04T05:43:04;1.00;99.90
17807;DHT22;9027;48.938;9.182;2023-03-04T05:44:35;1.00;99.90
17807;DHT22;9027;48.938;9.182;2023-03-04T05:46:12;0.90;99.90
17807;DHT22;9027;48.938;9.182;2023-03-04T05:47:44;0.90;99.90
17807;DHT22;9027;48.938;9.182;2023-03-04T05:49:16;0.90;99.90
17807;DHT22;9027;48.938;9.182;2023-03-04T05:50:52;0.90;99.90
17807;DHT22;9027;48.938;9.182;2023-03-04T05:52:25;0.80;99.90
17807;DHT22;9027;48.938;9.182;2023-03-04T05:53:56;0.80;99.90
17807;DHT22;9027;48.938;9.182;2023-03-04T05:55:29;0.80;99.90
17807;DHT22;9027;48.938;9.182;2023-03-04T05:57:00;0.70;99.90
17807;DHT22;9027;48.938;9.182;2023-03-04T05:58:32;0.80;99.90
17807;DHT22;9027;48.938;9.182;2023-03-04T06:00:04;0.80;99.90
17807;DHT22;9027;48.938;9.182;2023-03-04T06:01:44;0.90;99.90
17807;DHT22;9027;48.938;9.182;2023-03-04T06:03:18;0.90;99.90
17807;DHT22;9027;48.938;9.182;2023-03-04T06:04:51;0.90;99.90
17807;DHT22;9027;48.938;9.182;2023-03-04T06:06:22;0.90;99.90
17807;DHT22;9027;48.938;9.182;2023-03-04T06:07:54;0.90;99.90
17807;DHT22;9027;48.938;9.182;2023-03-04T06:09:26;0.90;99.90
17807;DHT22;9027;48.938;9.182;2023-03-04T06:10:58;0.90;99.90
17807;DHT22;9027;48.938;9.182;2023-03-04T06:12:30;0.90;99.90
17807;DHT22;9027;48.938;9.182;2023-03-04T06:14:02;0.90;99.90
17807;DHT22;9027;48.938;9.182;2023-03-04T06:15:34;0.90;99.90
17807;DHT22;9027;48.938;9.182;2023-03-04T06:17:07;0.90;99.90
17807;DHT22;9027;48.938;9.182;2023-03-04T06:18:39;0.90;99.90
17807;DHT22;9027;48.938;9.182;2023-03-04T06:20:12;0.90;99.90
17807;DHT22;9027;48.938;9.182;2023-03-04T06:21:43;1.00;99.90
17807;DHT22;9027;48.938;9.182;2023-03-04T06:23:15;1.00;99.90
17807;DHT22;9027;48.938;9.182;2023-03-04T06:24:46;1.00;99.90
17807;DHT22;9027;48.938;9.182;2023-03-04T06:26:18;1.00;99.90
17807;DHT22;9027;48.938;9.182;2023-03-04T06:27:50;1.00;99.90
17807;DHT22;9027;48.938;9.182;2023-03-04T06:29:22;1.00;99.90
17807;DHT22;9027;48.938;9.182;2023-03-04T06:30:55;0.90;99.90
17807;DHT22;9027;48.938;9.182;2023-03-04T06:32:28;0.80;99.90
17807;DHT22;9027;48.938;9.182;2023-03-04T06:34:00;0.80;99.90
17807;DHT22;9027;48.938;9.182;2023-03-04T06:35:32;0.70;99.90
17807;DHT22;9027;48.938;9.182;2023-03-04T06:37:04;0.70;99.90
17807;DHT22;9027;48.938;9.182;2023-03-04T06:38:36;0.70;99.90
17807;DHT22;9027;48.938;9.182;2023-03-04T06:40:09;0.70;99.90
17807;DHT22;9027;48.938;9.182;2023-03-04T06:41:41;0.70;99.90
17807;DHT22;9027;48.938;9.182;2023-03-04T06:43:13;0.80;99.90
17807;DHT22;9027;48.938;9.182;2023-03-04T06:44:44;0.80;99.90
17807;DHT22;9027;48.938;9.182;2023-03-04T06:46:16;0.80;99.90
17807;DHT22;9027;48.938;9.182;2023-03-04T06:47:49;0.80;99.90
17807;DHT22;9027;48.938;9.182;2023-03-04T06:49:21;0.80;99.90
17807;DHT22;9027;48.938;9.182;2023-03-04T06:50:53;0.70;99.90
17807;DHT22;9027;48.938;9.182;2023-03-04T06:52:25;0.50;99.90
17807;DHT22;9027;48.938;9.182;2023-03-04T06:53:57;0.40;99.90
17807;DHT22;9027;48.938;9.182;2023-03-04T06:55:29;0.40;99.90
17807;DHT22;9027;48.938;9.182;2023-03-04T06:57:00;0.40;99.90
17807;DHT22;9027;48.938;9.182;2023-03-04T06:58:33;0.40;99.90
17807;DHT22;9027;48.938;9.182;2023-03-04T07:00:06;0.50;99.90
17807;DHT22;9027;48.938;9.182;2023-03-04T07:01:38;0.40;99.90
17807;DHT22;9027;48.938;9.182;2023-03-04T07:03:11;0.30;99.90
17807;DHT22;9027;48.938;9.182;2023-03-04T07:04:43;0.40;99.90
17807;DHT22;9027;48.938;9.182;2023-03-04T07:06:17;0.50;99.90
17807;DHT22;9027;48.938;9.182;2023-03-04T07:07:49;0.60;99.90
17807;DHT22;9027;48.938;9.182;2023-03-04T07:09:21;0.70;99.90
17807;DHT22;9027;48.938;9.182;2023-03-04T07:10:53;0.80;99.90
17807;DHT22;9027;48.938;9.182;2023-03-04T07:12:25;0.90;99.90
17807;DHT22;9027;48.938;9.182;2023-03-04T07:13:56;1.00;99.90
17807;DHT22;9027;48.938;9.182;2023-03-04T07:15:28;1.10;99.90
17807;DHT22;9027;48.938;9.182;2023-03-04T07:17:00;1.20;99.90
17807;DHT22;9027;48.938;9.182;2023-03-04T07:18:33;1.30;99.90
17807;DHT22;9027;48.938;9.182;2023-03-04T07:20:06;1.30;99.90
17807;DHT22;9027;48.938;9.182;2023-03-04T07:21:38;1.30;99.90
17807;DHT22;9027;48.938;9.182;2023-03-04T07:23:09;1.10;99.90
17807;DHT22;9027;48.938;9.182;2023-03-04T07:24:41;1.10;99.90
17807;DHT22;9027;48.938;9.182;2023-03-04T07:26:13;1.20;99.90
17807;DHT22;9027;48.938;9.182;2023-03-04T07:27:45;1.20;99.90
17807;DHT22;9027;48.938;9.182;2023-03-04T07:29:17;1.20;99.90
17807;DHT22;9027;48.938;9.182;2023-03-04T07:30:48;1.30;99.90
17807;DHT22;9027;48.938;9.182;2023-03-04T07:32:20;1.40;99.90
17807;DHT22;9027;48.938;9.182;2023-03-04T07:33:55;1.40;99.90
17807;DHT22;9027;48.938;9.182;2023-03-04T07:35:27;1.20;99.90
17807;DHT22;9027;48.938;9.182;2023-03-04T07:36:59;1.20;99.90
17807;DHT22;9027;48.938;9.182;2023-03-04T07:38:31;1.10;99.90
17807;DHT22;9027;48.938;9.182;2023-03-04T07:40:04;1.10;99.90
17807;DHT22;9027;48.938;9.182;2023-03-04T07:41:38;1.10;99.90
17807;DHT22;9027;48.938;9.182;2023-03-04T07:43:11;1.30;99.90
17807;DHT22;9027;48.938;9.182;2023-03-04T07:44:42;1.40;99.90
17807;DHT22;9027;48.938;9.182;2023-03-04T07:46:14;1.40;99.90
17807;DHT22;9027;48.938;9.182;2023-03-04T07:47:46;1.50;99.90
17807;DHT22;9027;48.938;9.182;2023-03-04T07:49:19;1.60;99.90
17807;DHT22;9027;48.938;9.182;2023-03-04T07:51:02;1.60;99.90
17807;DHT22;9027;48.938;9.182;2023-03-04T07:52:37;1.70;99.90
17807;DHT22;9027;48.938;9.182;2023-03-04T07:54:09;1.80;99.90
17807;DHT22;9027;48.938;9.182;2023-03-04T07:55:41;1.80;99.90
17807;DHT22;9027;48.938;9.182;2023-03-04T07:57:12;1.90;99.90
17807;DHT22;9027;48.938;9.182;2023-03-04T07:58:45;2.00;99.90
17807;DHT22;9027;48.938;9.182;2023-03-04T08:00:17;2.30;99.90
17807;DHT22;9027;48.938;9.182;2023-03-04T08:01:49;2.30;99.90
17807;DHT22;9027;48.938;9.182;2023-03-04T08:03:20;2.30;99.90
17807;DHT22;9027;48.938;9.182;2023-03-04T08:04:54;2.30;99.90
17807;DHT22;9027;48.938;9.182;2023-03-04T08:06:26;2.30;99.90
17807;DHT22;9027;48.938;9.182;2023-03-04T08:07:58;2.40;99.90
17807;DHT22;9027;48.938;9.182;2023-03-04T08:09:30;2.50;99.90
17807;DHT22;9027;48.938;9.182;2023-03-04T08:11:03;2.60;99.90
17807;DHT22;9027;48.938;9.182;2023-03-04T08:12:35;2.70;99.90
17807;DHT22;9027;48.938;9.182;2023-03-04T08:14:06;2.80;99.90
17807;DHT22;9027;48.938;9.182;2023-03-04T08:15:39;2.80;99.90
17807;DHT22;9027;48.938;9.182;2023-03-04T08:17:11;2.50;99.90
17807;DHT22;9027;48.938;9.182;2023-03-04T08:18:45;2.30;99.90
17807;DHT22;9027;48.938;9.182;2023-03-04T08:20:20;2.30;99.90
17807;DHT22;9027;48.938;9.182;2023-03-04T08:21:51;2.30;99.90
17807;DHT22;9027;48.938;9.182;2023-03-04T08:23:23;2.30;99.90
17807;DHT22;9027;48.938;9.182;2023-03-04T08:24:55;2.40;99.90
17807;DHT22;9027;48.938;9.182;2023-03-04T08:26:29;2.50;99.90
17807;DHT22;9027;48.938;9.182;2023-03-04T08:28:03;2.60;99.90
17807;DHT22;9027;48.938;9.182;2023-03-04T08:29:35;2.60;99.90
17807;DHT22;9027;48.938;9.182;2023-03-04T08:31:07;2.60;99.90
17807;DHT22;9027;48.938;9.182;2023-03-04T08:32:39;2.60;99.90
17807;DHT22;9027;48.938;9.182;2023-03-04T08:34:11;2.60;99.90
17807;DHT22;9027;48.938;9.182;2023-03-04T08:35:45;2.70;99.90
17807;DHT22;9027;48.938;9.182;2023-03-04T08:37:17;2.90;99.90
17807;DHT22;9027;48.938;9.182;2023-03-04T08:38:49;2.80;99.90
17807;DHT22;9027;48.938;9.182;2023-03-04T08:40:21;2.90;99.90
17807;DHT22;9027;48.938;9.182;2023-03-04T08:41:54;2.90;99.90
17807;DHT22;9027;48.938;9.182;2023-03-04T08:43:26;3.00;99.90
17807;DHT22;9027;48.938;9.182;2023-03-04T08:44:58;2.90;99.90
17807;DHT22;9027;48.938;9.182;2023-03-04T08:46:30;2.90;99.90
17807;DHT22;9027;48.938;9.182;2023-03-04T08:48:01;2.90;99.90
17807;DHT22;9027;48.938;9.182;2023-03-04T08:49:34;2.90;99.90
17807;DHT22;9027;48.938;9.182;2023-03-04T08:51:09;3.00;99.90
17807;DHT22;9027;48.938;9.182;2023-03-04T08:52:41;3.00;99.90
17807;DHT22;9027;48.938;9.182;2023-03-04T08:54:13;3.00;99.90
17807;DHT22;9027;48.938;9.182;2023-03-04T08:55:45;3.00;99.90
17807;DHT22;9027;48.938;9.182;2023-03-04T08:57:17;3.00;99.90
17807;DHT22;9027;48.938;9.182;2023-03-04T08:58:50;3.00;99.90
17807;DHT22;9027;48.938;9.182;2023-03-04T09:00:22;3.10;99.90
17807;DHT22;9027;48.938;9.182;2023-03-04T09:01:54;3.10;99.90
17807;DHT22;9027;48.938;9.182;2023-03-04T09:03:26;3.10;99.90
17807;DHT22;9027;48.938;9.182;2023-03-04T09:04:58;3.20;99.90
17807;DHT22;9027;48.938;9.182;2023-03-04T09:06:31;3.20;99.90
17807;DHT22;9027;48.938;9.182;2023-03-04T09:08:03;3.30;99.90
17807;DHT22;9027;48.938;9.182;2023-03-04T09:09:35;3.30;99.90
17807;DHT22;9027;48.938;9.182;2023-03-04T09:11:07;3.40;99.90
17807;DHT22;9027;48.938;9.182;2023-03-04T09:12:39;3.40;99.90
17807;DHT22;9027;48.938;9.182;2023-03-04T09:14:11;3.40;99.90
17807;DHT22;9027;48.938;9.182;2023-03-04T09:15:44;3.50;99.90
17807;DHT22;9027;48.938;9.182;2023-03-04T09:17:16;3.60;99.90
17807;DHT22;9027;48.938;9.182;2023-03-04T09:18:48;3.60;99.90
17807;DHT22;9027;48.938;9.182;2023-03-04T09:20:20;3.50;99.90
17807;DHT22;9027;48.938;9.182;2023-03-04T09:21:54;3.50;99.90
17807;DHT22;9027;48.938;9.182;2023-03-04T09:23:26;3.60;99.90
17807;DHT22;9027;48.938;9.182;2023-03-04T09:24:58;3.60;99.90
17807;DHT22;9027;48.938;9.182;2023-03-04T09:26:30;3.70;99.90
17807;DHT22;9027;48.938;9.182;2023-03-04T09:28:01;3.70;99.90
17807;DHT22;9027;48.938;9.182;2023-03-04T09:29:33;3.60;99.90
17807;DHT22;9027;48.938;9.182;2023-03-04T09:31:10;3.70;99.90
17807;DHT22;9027;48.938;9.182;2023-03-04T09:32:42;3.80;99.90
17807;DHT22;9027;48.938;9.182;2023-03-04T09:34:14;3.90;99.90
17807;DHT22;9027;48.938;9.182;2023-03-04T09:35:48;3.80;99.90
17807;DHT22;9027;48.938;9.182;2023-03-04T09:37:24;3.70;99.90
17807;DHT22;9027;48.938;9.182;2023-03-04T09:38:58;3.70;99.90
17807;DHT22;9027;48.938;9.182;2023-03-04T09:40:35;3.70;99.90
17807;DHT22;9027;48.938;9.182;2023-03-04T09:42:23;3.80;99.90
17807;DHT22;9027;48.938;9.182;2023-03-04T09:43:56;3.80;99.90
17807;DHT22;9027;48.938;9.182;2023-03-04T09:45:35;3.70;99.90
17807;DHT22;9027;48.938;9.182;2023-03-04T09:47:17;3.70;99.90
17807;DHT22;9027;48.938;9.182;2023-03-04T09:48:51;3.60;99.90
17807;DHT22;9027;48.938;9.182;2023-03-04T09:50:25;3.60;99.90
17807;DHT22;9027;48.938;9.182;2023-03-04T09:52:03;3.70;99.90
17807;DHT22;9027;48.938;9.182;2023-03-04T09:53:48;3.70;99.90
17807;DHT22;9027;48.938;9.182;2023-03-04T09:55:27;3.70;99.90
17807;DHT22;9027;48.938;9.182;2023-03-04T09:57:16;3.90;99.90
17807;DHT22;9027;48.938;9.182;2023-03-04T09:58:56;4.10;99.90
17807;DHT22;9027;48.938;9.182;2023-03-04T10:00:38;4.20;99.90
17807;DHT22;9027;48.938;9.182;2023-03-04T10:02:17;4.10;99.90
17807;DHT22;9027;48.938;9.182;2023-03-04T10:03:58;4.10;99.90
17807;DHT22;9027;48.938;9.182;2023-03-04T10:05:31;4.10;99.90
17807;DHT22;9027;48.938;9.182;2023-03-04T10:07:05;4.20;99.90